createdAt,value
2019-05-28T00:02:19.390Z,9.83
2019-05-28T00:07:04.315Z,9.83
2019-05-28T00:11:48.988Z,9.97
2019-05-28T00:16:36.592Z,11.10
2019-05-28T00:21:21.295Z,10.00
2019-05-28T00:26:05.963Z,10.80
2019-05-28T00:30:50.638Z,12.03
2019-05-28T00:35:35.357Z,11.77
2019-05-28T00:40:20.136Z,12.63
2019-05-28T00:45:06.460Z,12.40
2019-05-28T00:49:51.082Z,13.47
2019-05-28T00:54:35.663Z,13.20
2019-05-28T00:59:21.041Z,12.00
2019-05-28T01:04:05.943Z,12.47
2019-05-28T01:08:51.297Z,12.63
2019-05-28T01:13:37.095Z,10.50
2019-05-28T01:18:21.781Z,12.07
2019-05-28T01:23:06.468Z,12.37
2019-05-28T01:27:51.302Z,11.43
2019-05-28T01:32:35.892Z,12.33
2019-05-28T01:37:20.552Z,12.17
2019-05-28T01:42:05.133Z,12.97
2019-05-28T01:46:49.841Z,12.47
2019-05-28T01:51:35.051Z,14.77
2019-05-28T01:56:21.482Z,11.73
2019-05-28T02:01:12.548Z,10.77
2019-05-28T02:05:52.774Z,10.60
2019-05-28T02:10:40.379Z,11.63
2019-05-28T02:15:25.960Z,10.93
2019-05-28T02:20:11.176Z,10.97
2019-05-28T02:24:55.758Z,10.80
2019-05-28T02:29:40.305Z,10.60
2019-05-28T02:34:26.824Z,11.50
2019-05-28T02:39:11.578Z,11.30
2019-05-28T02:43:56.186Z,12.00
2019-05-28T02:48:40.880Z,9.63
2019-05-28T02:53:26.141Z,10.83
2019-05-28T02:58:11.851Z,11.37
2019-05-28T03:02:58.257Z,11.57
2019-05-28T03:07:44.248Z,12.33
2019-05-28T03:12:28.964Z,12.87
2019-05-28T03:17:13.791Z,11.00
2019-05-28T03:22:01.333Z,10.30
2019-05-28T03:26:48.800Z,8.93
2019-05-28T03:31:33.769Z,7.97
2019-05-28T03:36:19.862Z,8.47
2019-05-28T03:41:04.587Z,9.53
2019-05-28T03:45:49.500Z,9.80
2019-05-28T03:50:34.203Z,11.63
2019-05-28T03:55:22.045Z,10.20
2019-05-28T04:00:06.877Z,12.80
2019-05-28T04:04:51.825Z,11.80
2019-05-28T04:09:37.100Z,11.33
2019-05-28T04:14:21.978Z,14.03
2019-05-28T04:19:06.940Z,14.17
2019-05-28T04:23:53.977Z,13.90
2019-05-28T04:28:40.982Z,13.87
2019-05-28T04:33:25.724Z,14.80
2019-05-28T04:38:10.285Z,13.40
2019-05-28T04:42:55.406Z,13.20
2019-05-28T04:47:44.815Z,12.57
2019-05-28T04:52:30.934Z,15.43
2019-05-28T04:57:25.209Z,14.53
2019-05-28T05:02:10.311Z,14.63
2019-05-28T05:06:58.683Z,15.87
2019-05-28T05:11:44.107Z,13.37
2019-05-28T05:16:29.632Z,14.67
2019-05-28T05:21:23.903Z,14.00
2019-05-28T05:26:08.926Z,15.60
2019-05-28T05:30:58.212Z,13.93
2019-05-28T05:35:43.174Z,12.60
2019-05-28T05:40:29.290Z,14.33
2019-05-28T05:45:14.354Z,13.37
2019-05-28T05:49:59.819Z,17.27
2019-05-28T05:54:44.402Z,14.83
2019-05-28T05:59:31.435Z,13.00
2019-05-28T06:04:16.255Z,14.40
2019-05-28T06:09:01.311Z,14.13
2019-05-28T06:13:46.416Z,15.07
2019-05-28T06:18:34.363Z,13.73
2019-05-28T06:23:20.437Z,10.60
2019-05-28T06:28:05.252Z,10.10
2019-05-28T06:32:49.842Z,8.67
2019-05-28T06:37:34.648Z,10.63
2019-05-28T06:42:22.402Z,9.37
2019-05-28T06:47:07.476Z,11.27
2019-05-28T06:51:52.667Z,11.77
2019-05-28T06:56:37.690Z,18.33
2019-05-28T07:01:28.389Z,12.17
2019-05-28T07:06:15.984Z,13.43
2019-05-28T07:11:01.267Z,10.00
2019-05-28T07:15:46.352Z,10.37
2019-05-28T07:20:33.903Z,11.37
2019-05-28T07:25:18.773Z,11.03
2019-05-28T07:30:03.725Z,11.27
2019-05-28T07:34:48.701Z,13.37
2019-05-28T07:39:36.285Z,11.50
2019-05-28T07:44:21.024Z,9.13
2019-05-28T07:49:05.791Z,12.33
2019-05-28T07:53:51.452Z,8.63
2019-05-28T07:58:36.078Z,7.70
2019-05-28T08:03:21.683Z,12.67
2019-05-28T08:08:08.715Z,7.23
2019-05-28T08:12:53.426Z,8.93
2019-05-28T08:17:39.058Z,6.33
2019-05-28T08:22:40.887Z,6.67
2019-05-28T08:27:11.333Z,6.57
2019-05-28T08:31:56.234Z,9.80
2019-05-28T08:36:43.939Z,8.03
2019-05-28T08:41:29.971Z,7.47
2019-05-28T08:46:15.117Z,7.53
2019-05-28T08:51:01.508Z,9.43
2019-05-28T08:55:46.631Z,6.60
2019-05-28T09:00:39.573Z,6.87
2019-05-28T09:05:26.668Z,7.43
2019-05-28T09:10:10.986Z,8.23
2019-05-28T09:14:56.897Z,6.63
2019-05-28T09:19:41.857Z,7.17
2019-05-28T09:24:27.914Z,6.77
2019-05-28T09:29:15.653Z,7.63
2019-05-28T09:34:03.225Z,8.13
2019-05-28T09:38:48.503Z,9.27
2019-05-28T09:43:33.276Z,6.83
2019-05-28T09:48:18.475Z,5.93
2019-05-28T09:53:03.403Z,6.57
2019-05-28T09:57:53.247Z,10.13
2019-05-28T10:02:38.132Z,8.00
2019-05-28T10:07:23.149Z,5.57
2019-05-28T10:12:07.966Z,6.73
2019-05-28T10:16:52.929Z,6.33
2019-05-28T10:21:37.533Z,7.57
2019-05-28T10:26:22.237Z,5.97
2019-05-28T10:31:07.984Z,5.47
2019-05-28T10:35:52.883Z,6.47
2019-05-28T10:40:40.561Z,7.37
2019-05-28T10:45:27.013Z,5.30
2019-05-28T10:50:11.822Z,4.73
2019-05-28T10:54:56.707Z,5.87
2019-05-28T10:59:43.243Z,4.20
2019-05-28T11:04:28.063Z,4.37
2019-05-28T11:09:12.762Z,5.50
2019-05-28T11:13:57.721Z,8.53
2019-05-28T11:18:42.448Z,5.83
2019-05-28T11:23:27.036Z,5.60
2019-05-28T11:28:14.763Z,4.43
2019-05-28T11:33:00.576Z,4.50
2019-05-28T11:37:45.358Z,5.07
2019-05-28T11:42:30.446Z,6.60
2019-05-28T11:47:15.063Z,4.97
2019-05-28T11:51:59.860Z,4.73
2019-05-28T11:56:47.746Z,6.00
2019-05-28T12:01:35.280Z,6.67
2019-05-28T12:06:19.409Z,7.33
2019-05-28T12:11:04.445Z,5.33
2019-05-28T12:15:49.235Z,6.90
2019-05-28T12:20:34.126Z,8.40
2019-05-28T12:25:20.914Z,5.30
2019-05-28T12:30:07.339Z,7.23
2019-05-28T12:34:52.162Z,6.83
2019-05-28T12:39:36.818Z,8.17
2019-05-28T12:44:21.625Z,8.80
2019-05-28T12:49:06.251Z,7.00
2019-05-28T12:53:51.699Z,8.00
2019-05-28T12:58:42.290Z,6.20
2019-05-28T13:03:23.372Z,6.97
2019-05-28T13:08:10.178Z,7.80
2019-05-28T13:12:55.161Z,5.87
2019-05-28T13:17:39.771Z,6.43
2019-05-28T13:22:37.409Z,6.20
2019-05-28T13:27:22.363Z,4.43
2019-05-28T13:32:08.698Z,7.97
2019-05-28T13:36:53.509Z,8.60
2019-05-28T13:41:38.689Z,9.00
2019-05-28T13:46:23.730Z,9.50
2019-05-28T13:51:08.557Z,6.73
2019-05-28T13:55:53.414Z,7.57
2019-05-28T14:00:38.436Z,7.17
2019-05-28T14:05:37.698Z,5.43
2019-05-28T14:10:23.130Z,6.70
2019-05-28T14:15:08.382Z,6.40
2019-05-28T14:19:53.043Z,11.10
2019-05-28T14:24:37.818Z,8.53
2019-05-28T14:29:25.787Z,6.47
2019-05-28T14:34:10.455Z,6.43
2019-05-28T14:39:03.058Z,10.23
2019-05-28T14:43:42.318Z,9.10
2019-05-28T14:48:27.349Z,7.90
2019-05-28T14:53:11.939Z,11.17
2019-05-28T14:57:56.771Z,8.27
2019-05-28T15:02:41.914Z,6.27
2019-05-28T15:07:27.234Z,7.90
2019-05-28T15:12:12.120Z,7.77
2019-05-28T15:16:56.994Z,8.17
2019-05-28T15:21:42.071Z,9.70
2019-05-28T15:26:27.026Z,8.07
2019-05-28T15:31:11.727Z,9.67
2019-05-28T15:35:57.293Z,8.80
2019-05-28T15:40:42.449Z,10.27
2019-05-28T15:45:27.747Z,8.40
2019-05-28T15:50:12.962Z,11.17
2019-05-28T15:54:58.475Z,10.63
2019-05-28T15:59:44.525Z,8.33
2019-05-28T16:04:29.739Z,10.37
2019-05-28T16:09:14.520Z,10.87
2019-05-28T16:13:59.788Z,8.63
2019-05-28T16:18:44.579Z,11.53
2019-05-28T16:23:29.786Z,8.73
2019-05-28T16:28:15.469Z,14.60
2019-05-28T16:37:50.785Z,8.10
2019-05-28T16:42:49.501Z,8.67
2019-05-28T16:47:34.444Z,13.67
2019-05-28T16:52:20.507Z,9.87
2019-05-28T16:57:05.513Z,8.90
2019-05-28T17:01:50.422Z,10.93
2019-05-28T17:06:38.130Z,13.87
2019-05-28T17:11:32.770Z,8.30
2019-05-28T17:16:17.914Z,10.60
2019-05-28T17:21:02.580Z,10.00
2019-05-28T17:25:47.933Z,9.87
2019-05-28T17:30:33.076Z,9.57
2019-05-28T17:35:18.162Z,9.70
2019-05-28T17:40:06.515Z,9.77
2019-05-28T17:44:51.799Z,9.43
2019-05-28T17:49:36.690Z,9.40
2019-05-28T17:54:22.217Z,9.33
2019-05-28T17:59:37.437Z,12.27
2019-05-28T18:04:35.154Z,12.80
2019-05-28T18:09:21.032Z,11.73
2019-05-28T18:14:06.245Z,9.67
2019-05-28T18:18:51.045Z,9.23
2019-05-28T18:23:36.222Z,10.20
2019-05-28T18:28:21.389Z,11.53
2019-05-28T18:33:23.343Z,9.93
2019-05-28T18:38:08.337Z,9.30
2019-05-28T18:44:03.898Z,12.17
2019-05-28T18:54:45.176Z,14.27
2019-05-28T18:59:38.337Z,10.20
2019-05-28T19:04:24.382Z,12.03
2019-05-28T19:09:11.961Z,12.83
2019-05-28T19:13:58.217Z,10.93
2019-05-28T19:18:46.017Z,13.07
2019-05-28T19:23:31.452Z,11.13
2019-05-28T19:29:04.889Z,14.50
2019-05-28T19:34:34.354Z,11.53
2019-05-28T19:39:27.199Z,12.50
2019-05-28T19:44:12.039Z,13.50
2019-05-28T19:48:57.104Z,12.13
2019-05-28T19:53:42.066Z,12.30
2019-05-28T19:58:27.065Z,11.57
2019-05-28T20:03:12.115Z,14.97
2019-05-28T20:07:58.105Z,16.17
2019-05-28T20:12:45.715Z,11.83
2019-05-28T20:17:33.770Z,13.70
2019-05-28T20:22:18.964Z,12.53
2019-05-28T20:27:04.169Z,14.17
2019-05-28T20:31:51.997Z,10.73
2019-05-28T20:36:37.161Z,12.43
2019-05-28T20:41:24.881Z,10.67
2019-05-28T20:46:10.653Z,14.13
2019-05-28T20:51:07.340Z,11.60
2019-05-28T20:55:42.753Z,11.90
2019-05-28T21:00:27.799Z,8.73
2019-05-28T21:05:12.759Z,10.77
2019-05-28T21:09:58.528Z,8.50
2019-05-28T21:14:46.359Z,13.17
2019-05-28T21:19:31.410Z,10.50
2019-05-28T21:24:16.471Z,9.93
2019-05-28T21:29:01.676Z,9.93
2019-05-28T21:33:47.062Z,9.10
2019-05-28T21:38:31.849Z,10.93
2019-05-28T21:43:16.691Z,10.17
2019-05-28T21:48:01.442Z,8.67
2019-05-28T21:52:46.342Z,10.50
2019-05-28T21:57:31.409Z,10.97
2019-05-28T22:02:16.249Z,10.03
2019-05-28T22:07:01.608Z,12.80
2019-05-28T22:11:46.354Z,8.90
2019-05-28T22:16:31.628Z,10.13
2019-05-28T22:21:16.426Z,11.47
2019-05-28T22:26:02.562Z,9.63
2019-05-28T22:30:47.607Z,9.33
2019-05-28T22:35:37.954Z,10.33
2019-05-28T22:40:22.915Z,7.80
2019-05-28T22:45:07.783Z,11.47
2019-05-28T22:49:52.976Z,7.43
2019-05-28T22:54:39.711Z,8.00
2019-05-28T22:59:24.686Z,8.03
2019-05-28T23:04:09.330Z,6.47
2019-05-28T23:08:54.408Z,7.23
2019-05-28T23:13:46.857Z,11.23
2019-05-28T23:18:25.817Z,7.43
2019-05-28T23:23:11.446Z,6.60
2019-05-28T23:27:56.110Z,9.17
2019-05-28T23:32:41.175Z,10.23
2019-05-28T23:37:26.160Z,7.20
2019-05-28T23:42:11.541Z,7.00
2019-05-28T23:46:56.310Z,10.60
2019-05-28T23:51:40.983Z,7.20
2019-05-28T23:56:25.691Z,8.87
